GMAD METAR and TAF | Updated Today

GMAD METAR

Al Massira Airport

Observation time: 22 min. ago

GMAD 292030Z 21007KT CAVOK 20/16 Q1010 NOSIG

Need help? Read our tutorial on how to read METARs or read the parsed version below.

Al Massira Airport (GMAD) METAR

  • Weather conditions on Thu, 29 Sep 2022 20:30:00 +0000 (22 min. ago):
  • Present conditions: Dry
  • Clouds: Clear skies
  • Visibility: Greater than 10 km
  • Wind: 210 degrees at 7 knots
  • Temperature: 20 celsius
  • Dew point: 16 celsius
  • Pressure: 1010 millibars
  • Remarks: None


Useful to know...

GMAD TAF

Al Massira Airport

TAF GMAD 291700Z 2918/3024 19004KT CAVOK
Observation time: 3:52 hr. ago
Need help? Read our tutorial on how to read TAFs or read the parsed version below.

Parsed version of TAF for Al Massira Airport (GMAD)

  • From 29 September at 18:00 UTC, to day 30 of the month at 24:00 UTC
  • Visibility: Greater than 10 km
  • Wind: 190 degrees at 4

Airports near GMAD